Ristna, Estonia

12:49 AM EEST on September 03, 2015 (GMT +0300)
Kuressaare | | Change Station
CLOSE
Current Station
Airport
Location: Kuressaare,
Elevation: 13 ft
Nearby Weather Stations

Elev 13 ft 58.23 °N, 22.51 °E | Updated 59 minutes ago

Scattered Clouds
Scattered Clouds
57 °F
Feels Like 57 °F
N
4
Wind Variable Wind from West

Today
High -- | Low -- °F
--% Chance of Precip.
Yesterday
High -- | Low -- °F
Precip. -- in
6:32 AM 8:28 PM
Waning Gibbous, 77% visible
Pressure 29.80 in
Visibility 6.2 miles
Clouds Scattered Clouds 4800 ft
Dew Point 55 °F
Humidity 94%
Rainfall 0.00 in
Snow Depth Not available.
UV 0 out of 12
Pollen Not available.
Air Quality Not available.
Flu Activity Not available.
METAR EEKE 022050Z AUTO 28003KT 9999NDV SCT048 14/13 Q1009
Pressure 29.80 in
Visibility 6.2 miles
Clouds Scattered Clouds 4800 ft
Dew Point 55 °F
Humidity 94%
Rainfall 0.00 in
Snow Depth Not available.
UV 0 out of 12
Pollen Not available.
Air Quality Not available.
Flu Activity Not available.
METAR EEKE 022050Z AUTO 28003KT 9999NDV SCT048 14/13 Q1009

10-Day Weather Forecast

×

Almanac

Astronomy

Sep. 03, 2015 Rise Set
Actual Time
Civil Twilight
Nautical Twilight
Astronomical Twilight
Moon
Length of Visible Light
Length of Day
Tomorrow will be .
, % of the Moon is Illuminated

Today's Extremes

Country Highs Country Lows

Community

WunderPhotos

Upload Photos

1,851,818 photos uploaded!

WunderBlogs® & News

Nearby

Air Quality

  Air Quality AQ Index Pollutant
Not available.

Snow Depth

Station Depth Elevation

Earthquake Activity

City Distance Mag. Time & Date
Minimum magnitude displayed is 2.5.

Coastal Water Temperatures

Place Temperature

Stations

Nearby Weather Stations

Station Location Temp. Windchill Dew Point Humidity Wind Precip. Elev Updated Type